createdAt,value
2023-09-11T00:00:54.718Z,10.60
2023-09-11T00:05:16.955Z,11.75
2023-09-11T00:09:39.001Z,12.35
2023-09-11T00:14:01.112Z,11.30
2023-09-11T00:18:25.069Z,12.07
2023-09-11T00:22:47.220Z,11.65
2023-09-11T00:27:09.197Z,11.65
2023-09-11T00:31:31.113Z,11.93
2023-09-11T00:35:53.550Z,12.15
2023-09-11T00:40:15.875Z,12.82
2023-09-11T00:44:37.860Z,11.85
2023-09-11T00:49:01.805Z,11.70
2023-09-11T00:53:24.108Z,13.18
2023-09-11T00:57:46.438Z,13.40
2023-09-11T01:02:08.796Z,13.68
2023-09-11T01:06:31.060Z,13.35
2023-09-11T01:10:53.456Z,13.20
2023-09-11T01:15:15.718Z,13.43
2023-09-11T01:20:11.394Z,12.63
2023-09-11T01:25:13.474Z,13.43
2023-09-11T01:29:38.043Z,13.68
2023-09-11T01:34:05.204Z,13.85
2023-09-11T01:38:27.474Z,12.68
2023-09-11T01:42:54.770Z,12.70
2023-09-11T01:47:23.085Z,13.15
2023-09-11T01:51:46.380Z,13.57
2023-09-11T01:56:08.908Z,13.75
2023-09-11T02:00:31.258Z,14.40
2023-09-11T02:04:54.279Z,14.77
2023-09-11T02:09:16.482Z,13.73
2023-09-11T02:13:39.161Z,14.20
2023-09-11T02:18:01.674Z,13.57
2023-09-11T02:22:23.858Z,13.82
2023-09-11T02:26:45.695Z,14.85
2023-09-11T02:31:09.368Z,14.95
2023-09-11T02:35:32.629Z,14.85
2023-09-11T02:39:54.917Z,15.00
2023-09-11T02:44:17.270Z,15.48
2023-09-11T02:48:47.652Z,14.40
2023-09-11T02:53:10.548Z,14.98
2023-09-11T02:57:32.718Z,14.63
2023-09-11T03:01:54.922Z,15.30
2023-09-11T03:06:17.101Z,15.57
2023-09-11T03:10:39.485Z,15.63
2023-09-11T03:15:04.955Z,16.67
2023-09-11T03:19:27.798Z,15.95
2023-09-11T03:23:50.019Z,15.80
2023-09-11T03:28:12.207Z,16.60
2023-09-11T03:32:34.310Z,16.58
2023-09-11T03:36:56.483Z,16.67
2023-09-11T03:41:19.573Z,16.17
2023-09-11T03:45:42.114Z,15.50
2023-09-11T03:50:05.612Z,16.10
2023-09-11T03:54:28.123Z,16.00
2023-09-11T03:58:51.834Z,17.83
2023-09-11T04:03:15.186Z,18.00
2023-09-11T04:07:37.305Z,17.73
2023-09-11T04:11:59.602Z,17.27
2023-09-11T04:16:23.046Z,17.83
2023-09-11T04:20:46.118Z,16.58
2023-09-11T04:25:08.464Z,17.08
2023-09-11T04:29:32.570Z,16.73
2023-09-11T04:33:55.656Z,16.88
2023-09-11T04:38:17.760Z,16.90
2023-09-11T04:42:40.018Z,16.88
2023-09-11T04:47:02.178Z,15.88
2023-09-11T04:51:24.210Z,15.07
2023-09-11T04:55:48.624Z,16.30
2023-09-11T05:00:11.203Z,15.07
2023-09-11T05:04:35.723Z,14.30
2023-09-11T05:13:23.962Z,11.15
2023-09-11T05:17:47.901Z,10.05
2023-09-11T05:22:10.376Z,9.02
2023-09-11T05:26:33.688Z,10.48
2023-09-11T05:30:56.176Z,10.15
2023-09-11T05:35:18.111Z,9.48
2023-09-11T05:39:40.155Z,8.93
2023-09-11T05:44:02.180Z,8.70
2023-09-11T05:48:27.277Z,8.70
2023-09-11T05:52:53.110Z,8.57
2023-09-11T05:57:15.388Z,8.77
2023-09-11T06:01:39.722Z,8.35
2023-09-11T06:06:02.065Z,8.48
2023-09-11T06:10:24.235Z,9.32
2023-09-11T06:14:46.540Z,8.88
2023-09-11T06:19:08.817Z,8.20
2023-09-11T06:23:30.825Z,8.10
2023-09-11T06:27:53.088Z,8.23
2023-09-11T06:32:16.738Z,8.52
2023-09-11T06:36:38.916Z,7.88
2023-09-11T06:41:01.229Z,8.27
2023-09-11T06:45:23.300Z,8.55
2023-09-11T06:49:45.607Z,8.25
2023-09-11T06:54:10.956Z,8.05
2023-09-11T06:58:32.942Z,7.93
2023-09-11T07:02:57.340Z,8.75
2023-09-11T07:07:19.677Z,7.93
2023-09-11T07:11:41.997Z,8.25
2023-09-11T07:16:05.479Z,8.27
2023-09-11T07:20:29.047Z,7.30
2023-09-11T07:24:51.407Z,7.30
2023-09-11T07:29:13.711Z,7.47
2023-09-11T07:33:36.041Z,7.38
2023-09-11T07:37:58.036Z,6.80
2023-09-11T07:42:19.925Z,7.22
2023-09-11T07:46:42.595Z,7.28
2023-09-11T07:51:05.116Z,6.75
2023-09-11T07:55:28.002Z,7.43
2023-09-11T07:59:50.099Z,7.43
2023-09-11T08:04:12.377Z,7.05
2023-09-11T08:08:34.798Z,7.25
2023-09-11T08:12:59.857Z,6.78
2023-09-11T08:17:22.008Z,6.22
2023-09-11T08:21:44.208Z,5.82
2023-09-11T08:26:06.372Z,5.90
2023-09-11T08:30:28.941Z,6.47
2023-09-11T08:34:51.113Z,5.22
2023-09-11T08:39:13.282Z,5.43
2023-09-11T08:43:35.556Z,5.22
2023-09-11T08:47:59.807Z,5.05
2023-09-11T08:52:22.535Z,5.15
2023-09-11T08:56:45.510Z,4.90
2023-09-11T09:01:08.597Z,5.32
2023-09-11T09:05:34.981Z,4.70
2023-09-11T09:09:58.732Z,5.57
2023-09-11T09:14:21.470Z,5.43
2023-09-11T09:18:52.921Z,4.97
2023-09-11T09:23:17.420Z,5.00
2023-09-11T09:27:39.519Z,5.25
2023-09-11T09:32:02.523Z,5.10
2023-09-11T09:36:24.725Z,4.40
2023-09-11T09:40:47.161Z,4.80
2023-09-11T09:45:09.567Z,4.50
2023-09-11T09:49:34.156Z,3.95
2023-09-11T09:53:56.428Z,3.67
2023-09-11T09:58:29.773Z,4.13
2023-09-11T10:02:56.700Z,4.18
2023-09-11T10:07:40.960Z,4.20
2023-09-11T10:12:05.880Z,4.28
2023-09-11T10:16:29.959Z,4.40
2023-09-11T10:20:52.763Z,4.63
2023-09-11T10:25:15.053Z,4.30
2023-09-11T10:29:55.471Z,4.47
2023-09-11T10:34:17.874Z,4.10
2023-09-11T10:38:41.465Z,4.38
2023-09-11T10:43:04.156Z,3.53
2023-09-11T10:47:29.119Z,3.75
2023-09-11T10:51:51.712Z,3.92
2023-09-11T10:56:13.799Z,3.80
2023-09-11T11:00:39.751Z,4.38
2023-09-11T11:05:01.942Z,3.88
2023-09-11T11:09:33.054Z,4.07
2023-09-11T11:14:15.849Z,3.67
2023-09-11T11:18:38.351Z,3.40
2023-09-11T11:23:13.860Z,4.20
2023-09-11T11:27:37.457Z,3.40
2023-09-11T11:32:00.407Z,3.38
2023-09-11T11:36:23.073Z,3.65
2023-09-11T11:40:51.639Z,3.85
2023-09-11T11:45:14.595Z,3.90
2023-09-11T11:49:37.811Z,4.40
2023-09-11T11:54:00.789Z,4.30
2023-09-11T11:58:22.776Z,4.53
2023-09-11T12:02:44.826Z,4.10
2023-09-11T12:07:09.347Z,4.53
2023-09-11T12:11:34.916Z,4.40
2023-09-11T12:16:00.476Z,5.43
2023-09-11T12:20:24.557Z,4.70
2023-09-11T12:24:46.795Z,4.45
2023-09-11T12:29:09.227Z,4.93
2023-09-11T12:33:36.430Z,4.90
2023-09-11T12:37:58.849Z,4.95
2023-09-11T12:42:21.755Z,5.10
2023-09-11T12:46:44.050Z,4.80
2023-09-11T12:51:06.611Z,4.93
2023-09-11T12:55:30.598Z,5.10
2023-09-11T12:59:53.083Z,4.88
2023-09-11T13:04:15.654Z,4.63
2023-09-11T13:08:38.360Z,5.00
2023-09-11T13:13:00.535Z,5.00
2023-09-11T13:17:22.664Z,4.90
2023-09-11T13:21:44.889Z,4.78
2023-09-11T13:26:07.439Z,4.95
2023-09-11T13:30:29.553Z,4.70
2023-09-11T13:34:51.938Z,5.15
2023-09-11T13:39:14.375Z,5.15
2023-09-11T13:43:36.923Z,4.43
2023-09-11T13:47:59.719Z,5.55
2023-09-11T13:52:21.678Z,4.90
2023-09-11T13:56:43.749Z,5.13
2023-09-11T14:01:05.555Z,5.03
2023-09-11T14:05:43.023Z,5.57
2023-09-11T14:10:08.158Z,4.97
2023-09-11T14:14:30.619Z,5.80
2023-09-11T14:18:52.537Z,4.80
2023-09-11T14:23:14.638Z,4.85
2023-09-11T14:27:36.719Z,4.80
2023-09-11T14:31:58.944Z,5.57
2023-09-11T14:36:21.125Z,5.78
2023-09-11T14:40:43.222Z,4.95
2023-09-11T14:45:07.159Z,5.18
2023-09-11T14:49:29.158Z,4.93
2023-09-11T14:53:52.104Z,5.30
2023-09-11T14:58:14.358Z,5.95
2023-09-11T15:02:36.847Z,5.25
2023-09-11T15:06:59.317Z,5.80
2023-09-11T15:11:21.857Z,5.35
2023-09-11T15:15:45.654Z,5.82
2023-09-11T15:20:08.279Z,5.70
2023-09-11T15:24:30.491Z,5.03
2023-09-11T15:28:53.849Z,5.15
2023-09-11T15:33:16.492Z,5.57
2023-09-11T15:37:38.992Z,6.07
2023-09-11T15:42:00.833Z,5.25
2023-09-11T15:46:40.580Z,5.57
2023-09-11T15:51:05.544Z,5.10
2023-09-11T15:55:27.875Z,6.00
2023-09-11T15:59:50.039Z,5.43
2023-09-11T16:04:12.220Z,5.00
2023-09-11T16:08:34.498Z,4.70
2023-09-11T16:12:56.998Z,4.95
2023-09-11T16:17:19.877Z,5.68
2023-09-11T16:21:41.883Z,4.63
2023-09-11T16:26:03.978Z,4.43
2023-09-11T16:30:26.080Z,5.25
2023-09-11T16:34:48.139Z,6.53
2023-09-11T16:39:10.915Z,5.78
2023-09-11T16:43:33.015Z,5.72
2023-09-11T16:47:55.138Z,6.53
2023-09-11T16:52:18.303Z,7.95
2023-09-11T16:56:40.656Z,6.78
2023-09-11T17:01:10.486Z,7.30
2023-09-11T17:05:32.879Z,7.55
2023-09-11T17:09:55.083Z,7.13
2023-09-11T17:14:17.198Z,7.97
2023-09-11T17:18:39.302Z,6.53
2023-09-11T17:23:01.888Z,5.85
2023-09-11T17:27:24.130Z,4.97
2023-09-11T17:31:46.928Z,5.30
2023-09-11T17:36:10.312Z,5.75
2023-09-11T17:40:32.822Z,6.05
2023-09-11T17:44:54.992Z,13.02
2023-09-11T17:49:17.461Z,8.77
2023-09-11T17:53:39.446Z,6.60
2023-09-11T17:58:03.537Z,7.22
2023-09-11T18:02:25.552Z,6.47
2023-09-11T18:06:47.638Z,7.10
2023-09-11T18:11:09.660Z,6.47
2023-09-11T18:15:31.993Z,7.03
2023-09-11T18:19:54.249Z,6.63
2023-09-11T18:24:16.806Z,6.43
2023-09-11T18:28:38.970Z,6.03
2023-09-11T18:33:02.456Z,6.05
2023-09-11T18:37:24.934Z,6.07
2023-09-11T18:41:47.233Z,5.95
2023-09-11T18:46:09.493Z,6.30
2023-09-11T18:50:31.868Z,5.97
2023-09-11T18:54:53.992Z,5.95
2023-09-11T18:59:15.978Z,6.38
2023-09-11T19:03:38.277Z,6.55
2023-09-11T19:08:00.336Z,6.32
2023-09-11T19:12:22.560Z,6.50
2023-09-11T19:16:47.286Z,6.22
2023-09-11T19:21:09.630Z,6.45
2023-09-11T19:25:31.761Z,6.53
2023-09-11T19:29:54.955Z,6.43
2023-09-11T19:34:17.103Z,6.80
2023-09-11T19:38:40.838Z,6.25
2023-09-11T19:43:03.840Z,7.28
2023-09-11T19:47:28.456Z,6.80
2023-09-11T19:51:50.505Z,7.10
2023-09-11T19:56:12.650Z,5.97
2023-09-11T20:00:35.058Z,6.78
2023-09-11T20:04:58.277Z,7.13
2023-09-11T20:09:20.499Z,5.85
2023-09-11T20:13:42.560Z,6.38
2023-09-11T20:18:05.051Z,5.88
2023-09-11T20:22:27.076Z,6.40
2023-09-11T20:26:49.256Z,6.57
2023-09-11T20:31:16.499Z,6.47
2023-09-11T20:35:41.447Z,5.95
2023-09-11T20:40:04.179Z,7.00
2023-09-11T20:44:26.646Z,5.65
2023-09-11T20:48:52.624Z,6.40
2023-09-11T20:53:14.722Z,6.72
2023-09-11T20:57:36.798Z,6.93
2023-09-11T21:01:58.750Z,6.75
2023-09-11T21:06:21.274Z,6.70
2023-09-11T21:10:43.687Z,7.18
2023-09-11T21:15:06.520Z,6.10
2023-09-11T21:19:28.418Z,6.75
2023-09-11T21:23:50.838Z,6.53
2023-09-11T21:28:13.162Z,6.97
2023-09-11T21:32:35.464Z,6.72
2023-09-11T21:36:59.038Z,6.18
2023-09-11T21:41:21.140Z,6.57
2023-09-11T21:45:44.694Z,7.28
2023-09-11T21:50:07.552Z,8.52
2023-09-11T21:54:29.625Z,6.22
2023-09-11T21:58:51.838Z,7.40
2023-09-11T22:03:14.054Z,7.43
2023-09-11T22:07:36.368Z,6.70
2023-09-11T22:11:59.012Z,6.95
2023-09-11T22:16:21.433Z,6.88
2023-09-11T22:20:43.296Z,6.70
2023-09-11T22:25:06.082Z,6.82
2023-09-11T22:29:31.676Z,7.05
2023-09-11T22:33:53.977Z,7.60
2023-09-11T22:38:16.535Z,6.75
2023-09-11T22:42:38.606Z,14.65
2023-09-11T22:47:01.965Z,7.28
2023-09-11T22:51:24.007Z,9.25
2023-09-11T22:55:45.869Z,9.10
2023-09-11T23:00:08.870Z,8.30
2023-09-11T23:04:30.894Z,8.48
2023-09-11T23:08:52.857Z,10.65
2023-09-11T23:13:15.034Z,8.73
2023-09-11T23:17:37.614Z,9.77
2023-09-11T23:21:59.994Z,9.23
2023-09-11T23:26:22.119Z,10.80
2023-09-11T23:30:44.608Z,8.02
2023-09-11T23:35:07.840Z,8.88
2023-09-11T23:39:30.159Z,11.15
2023-09-11T23:43:52.406Z,8.63
2023-09-11T23:48:14.489Z,8.75
2023-09-11T23:52:36.881Z,8.18
2023-09-11T23:56:59.074Z,8.70
